最新機場天氣報告 (METAR)

METAR VMMC 231730Z 10006KT 060V120 9999 FEW020 27/23 Q1016 NOSIG=

機場天氣報告電碼經解碼後
報告內容 編碼 意義
報告種類之識別 METAR 機場天氣報告
機場代碼 VMMC 中國澳門
觀察時間 231730Z 23/09/2019 17:30:00 國際時
地面風方向及風速 10006KT 060V120 平均風向 100 度, 風速 6 海里; 風向變化介乎 060 至 120 度
能見度 9999 10公里或以上
現時天氣狀況    
FEW020 雲量 1-2份; 雲底 2000 呎
空氣溫度和露點溫度 27/23 氣溫攝氏 27 度
露點溫度攝氏 23 度
氣壓 (QNH) Q1016 1016 百帕斯卡
未來兩小時之天氣趨勢變化 NOSIG 沒有顯著變化

其他國際機場:
天氣預報 (TAF)   天氣報告 (METAR)